Time;durP1;ratioP1;P1;durP2;ratioP2;P2;SDS_P1;SDS_P2;PMS_P1;PMS_P2;Temp;Humidity;BMP_temperature;BMP_pressure;BME280_temperature;BME280_humidity;BME280_pressure;Samples;Min_cycle;Max_cycle;Signal;HPM_P1;HPM_P2
2024/01/03 00:00:08;;;;;;;11.87;2.77;;;9.90;1.00;;;;;;4997941;28;20460;-65
2024/01/03 00:02:37;;;;;;;11.10;3.60;;;9.90;1.00;;;;;;4998054;28;20860;-66
2024/01/03 00:05:08;;;;;;;11.90;2.80;;;9.90;1.00;;;;;;4998735;28;20555;-69
2024/01/03 00:07:35;;;;;;;9.50;3.40;;;9.90;1.00;;;;;;4998722;28;20469;-65
2024/01/03 00:10:14;;;;;;;14.43;3.50;;;9.90;1.00;;;;;;4999873;28;20949;-66
2024/01/03 00:12:41;;;;;;;12.13;3.60;;;9.90;59.60;;;;;;5000969;28;20481;-64
2024/01/03 00:15:48;;;;;;;12.53;3.77;;;9.90;99.90;;;;;;5000268;28;20468;-66
2024/01/03 00:18:33;;;;;;;9.57;3.33;;;9.90;1.00;;;;;;5001497;28;20457;-67
2024/01/03 00:21:00;;;;;;;8.67;3.07;;;9.90;99.90;;;;;;5001591;28;20762;-67
2024/01/03 00:23:37;;;;;;;8.33;3.60;;;9.90;38.40;;;;;;5000071;28;20559;-69
2024/01/03 00:26:05;;;;;;;9.30;3.17;;;9.90;99.90;;;;;;5001792;28;20464;-66
2024/01/03 00:28:34;;;;;;;8.17;3.10;;;10.00;99.90;;;;;;5001856;28;20519;-71
2024/01/03 00:31:01;;;;;;;10.23;3.10;;;10.00;1.00;;;;;;5004499;28;20461;-68
2024/01/03 00:33:30;;;;;;;9.97;3.47;;;10.00;99.90;;;;;;5002463;28;20440;-68
2024/01/03 00:35:58;;;;;;;15.90;3.67;;;9.90;99.90;;;;;;5002051;28;20488;-65
2024/01/03 00:38:25;;;;;;;11.70;3.00;;;9.90;99.90;;;;;;5000603;28;20511;-66
2024/01/03 00:40:57;;;;;;;10.83;4.10;;;9.90;99.90;;;;;;5001303;28;20560;-69
2024/01/03 00:43:24;;;;;;;13.10;4.20;;;9.90;99.90;;;;;;5000239;28;20439;-66
2024/01/03 00:45:52;;;;;;;10.83;3.20;;;9.90;39.40;;;;;;5000155;28;20506;-64
2024/01/03 00:48:19;;;;;;;9.77;3.60;;;9.90;99.00;;;;;;4999314;28;20500;-66
2024/01/03 00:50:49;;;;;;;9.03;3.30;;;9.90;99.90;;;;;;5000774;28;20457;-66
2024/01/03 00:53:16;;;;;;;9.23;2.87;;;9.90;99.90;;;;;;4999852;28;20648;-66
2024/01/03 00:55:44;;;;;;;7.97;3.20;;;9.90;99.90;;;;;;4999799;28;20499;-66
2024/01/03 00:58:13;;;;;;;11.37;3.37;;;9.80;99.90;;;;;;4998219;28;20461;-63
2024/01/03 01:00:40;;;;;;;20.03;4.40;;;9.70;99.90;;;;;;4997332;28;20461;-68
2024/01/03 01:03:07;;;;;;;10.03;3.77;;;9.70;99.90;;;;;;4997454;28;20898;-65
2024/01/03 01:05:35;;;;;;;13.10;4.07;;;9.70;1.00;;;;;;4996614;28;20557;-68
2024/01/03 01:08:04;;;;;;;11.07;3.80;;;9.60;99.90;;;;;;4996177;28;20484;-65
2024/01/03 01:10:31;;;;;;;12.80;3.17;;;9.60;99.90;;;;;;4995758;28;20467;-64
2024/01/03 01:13:00;;;;;;;13.57;3.87;;;9.50;99.90;;;;;;4995902;28;20503;-68
2024/01/03 01:15:27;;;;;;;12.30;3.73;;;9.50;1.00;;;;;;4995839;28;20585;-68
2024/01/03 01:17:54;;;;;;;11.17;3.63;;;9.40;99.90;;;;;;4998568;28;20551;-64
2024/01/03 01:20:21;;;;;;;10.17;3.13;;;9.40;65.90;;;;;;5000416;28;20507;-65
2024/01/03 01:22:47;;;;;;;7.47;3.20;;;9.40;99.90;;;;;;5000674;28;20471;-69
2024/01/03 01:25:17;;;;;;;9.60;3.47;;;9.40;99.90;;;;;;5001041;28;20464;-67
2024/01/03 01:27:45;;;;;;;12.90;3.43;;;9.40;99.90;;;;;;5001299;28;20515;-66
2024/01/03 01:30:12;;;;;;;9.73;2.87;;;9.40;1.00;;;;;;5001061;28;20986;-69
2024/01/03 01:32:40;;;;;;;11.63;3.33;;;9.40;1.00;;;;;;5000759;28;20547;-64
2024/01/03 01:35:08;;;;;;;6.13;2.40;;;9.40;16.70;;;;;;5000871;28;20468;-66
2024/01/03 01:37:35;;;;;;;6.03;2.80;;;9.40;99.90;;;;;;5000771;28;20515;-64
2024/01/03 01:40:03;;;;;;;8.13;2.73;;;9.50;1.00;;;;;;5000620;28;20805;-61
2024/01/03 01:42:31;;;;;;;9.00;3.70;;;9.50;99.90;;;;;;5001072;28;20464;-64
2024/01/03 01:44:59;;;;;;;9.73;3.20;;;9.50;1.00;;;;;;5000960;28;20564;-64
2024/01/03 01:47:27;;;;;;;7.07;2.70;;;9.50;1.00;;;;;;5001081;28;20504;-65
2024/01/03 01:49:55;;;;;;;9.20;3.97;;;9.60;99.90;;;;;;5001521;28;20467;-66
2024/01/03 01:52:23;;;;;;;9.93;3.70;;;9.60;13.10;;;;;;5001671;28;20471;-64
2024/01/03 01:54:50;;;;;;;9.20;2.77;;;9.60;99.90;;;;;;5001221;28;20825;-66
2024/01/03 01:57:18;;;;;;;10.67;3.10;;;9.60;99.90;;;;;;5001726;28;20527;-67
2024/01/03 01:59:48;;;;;;;10.70;4.10;;;9.60;99.90;;;;;;5002211;28;20457;-68
2024/01/03 02:02:15;;;;;;;9.93;3.13;;;9.60;34.10;;;;;;5002097;28;20810;-67
2024/01/03 02:04:43;;;;;;;7.90;3.07;;;9.60;1.00;;;;;;5001731;28;20456;-66
2024/01/03 02:07:10;;;;;;;5.87;2.40;;;9.60;99.90;;;;;;5001902;28;20568;-68
2024/01/03 02:09:37;;;;;;;9.03;3.30;;;9.60;1.00;;;;;;5001260;28;20968;-71
2024/01/03 02:12:09;;;;;;;11.80;2.80;;;9.60;1.00;;;;;;5001986;28;20563;-67
2024/01/03 02:14:36;;;;;;;7.07;2.53;;;9.60;1.00;;;;;;5001923;28;20555;-66
2024/01/03 02:17:05;;;;;;;4.77;2.40;;;9.60;1.00;;;;;;5002335;28;20508;-73
2024/01/03 02:19:32;;;;;;;11.23;3.53;;;9.60;1.00;;;;;;5002516;28;20465;-69
2024/01/03 02:22:01;;;;;;;11.83;3.23;;;9.60;1.00;;;;;;5002816;28;20461;-67
2024/01/03 02:24:28;;;;;;;7.33;3.00;;;9.70;99.90;;;;;;5002501;28;20809;-66
2024/01/03 02:26:55;;;;;;;9.33;2.30;;;9.60;99.90;;;;;;5003595;28;20515;-67
2024/01/03 02:29:23;;;;;;;7.60;2.70;;;9.60;1.00;;;;;;5001089;28;20524;-69
2024/01/03 02:31:50;;;;;;;8.10;3.00;;;9.60;99.90;;;;;;5000910;28;20956;-64
2024/01/03 02:34:17;;;;;;;10.50;2.80;;;9.60;29.30;;;;;;5001562;28;20472;-66
2024/01/03 02:36:47;;;;;;;11.70;3.23;;;9.60;70.50;;;;;;5002365;28;20520;-66
2024/01/03 02:39:16;;;;;;;9.70;2.50;;;9.60;1.00;;;;;;5001843;28;20548;-70
2024/01/03 02:41:43;;;;;;;8.93;2.60;;;9.60;1.00;;;;;;5001590;28;20444;-65
2024/01/03 02:44:11;;;;;;;5.03;2.60;;;9.60;1.00;;;;;;5000733;28;20461;-64
2024/01/03 02:46:38;;;;;;;11.40;2.60;;;9.60;1.00;;;;;;4999960;28;20460;-68
2024/01/03 02:49:05;;;;;;;9.23;3.00;;;9.50;99.90;;;;;;4999992;28;20496;-65
2024/01/03 02:51:33;;;;;;;7.57;2.53;;;9.50;99.90;;;;;;5000011;28;20965;-64
2024/01/03 02:54:00;;;;;;;11.67;3.10;;;9.50;99.90;;;;;;5001212;28;20528;-65
2024/01/03 02:56:29;;;;;;;11.47;2.73;;;9.50;42.10;;;;;;5001724;28;20511;-65
2024/01/03 02:58:56;;;;;;;6.20;2.17;;;9.50;99.90;;;;;;5000941;28;20457;-67
2024/01/03 03:01:23;;;;;;;5.73;2.63;;;9.60;27.80;;;;;;5000907;28;20515;-69
2024/01/03 03:03:50;;;;;;;8.43;2.63;;;9.60;1.00;;;;;;5001520;28;20583;-65
2024/01/03 03:06:18;;;;;;;10.73;1.93;;;9.60;1.00;;;;;;5000775;28;20544;-69
2024/01/03 03:08:45;;;;;;;10.53;2.57;;;9.60;99.90;;;;;;5002205;28;20461;-67
2024/01/03 03:11:12;;;;;;;7.13;2.63;;;9.60;99.90;;;;;;5000724;28;20452;-66
2024/01/03 03:13:41;;;;;;;6.80;2.70;;;9.70;99.90;;;;;;5002479;28;20766;-68
2024/01/03 03:16:08;;;;;;;11.43;3.10;;;9.60;1.00;;;;;;5003733;28;20473;-71
2024/01/03 03:18:36;;;;;;;8.37;2.80;;;9.60;99.90;;;;;;5000613;28;20465;-71
2024/01/03 03:21:03;;;;;;;7.60;2.30;;;9.60;99.90;;;;;;5002160;28;20560;-65
2024/01/03 03:23:30;;;;;;;12.37;3.30;;;9.60;99.90;;;;;;5003982;28;20467;-69
2024/01/03 03:26:01;;;;;;;9.30;3.23;;;9.60;1.00;;;;;;5001633;28;20465;-67
2024/01/03 03:28:28;;;;;;;6.73;2.90;;;9.60;99.90;;;;;;5000892;28;20457;-69
2024/01/03 03:30:56;;;;;;;7.97;3.17;;;9.70;99.90;;;;;;5001602;28;20499;-67
2024/01/03 03:33:24;;;;;;;12.00;3.10;;;9.70;94.90;;;;;;5001724;28;20469;-68
2024/01/03 03:35:51;;;;;;;12.90;3.20;;;9.70;1.00;;;;;;5001137;28;20475;-69
2024/01/03 03:38:18;;;;;;;7.10;2.00;;;9.70;99.90;;;;;;5002166;28;20519;-65
2024/01/03 03:40:46;;;;;;;7.60;2.63;;;9.60;99.90;;;;;;5002532;28;20913;-68
2024/01/03 03:43:13;;;;;;;5.07;2.40;;;9.60;1.00;;;;;;5002100;28;20465;-69
2024/01/03 03:45:40;;;;;;;5.93;2.33;;;9.60;1.00;;;;;;5002462;28;20894;-68
2024/01/03 03:48:09;;;;;;;7.63;2.70;;;9.60;1.00;;;;;;5002650;28;20528;-70
2024/01/03 03:50:39;;;;;;;6.80;2.40;;;9.60;99.90;;;;;;5000921;28;20555;-72
2024/01/03 03:53:10;;;;;;;5.53;2.87;;;9.60;99.90;;;;;;5002095;28;20483;-76
2024/01/03 03:55:42;;;;;;;13.30;3.40;;;9.60;99.90;;;;;;5001491;28;20491;-68
2024/01/03 03:58:09;;;;;;;10.50;2.70;;;9.60;99.90;;;;;;5002061;28;20527;-69
2024/01/03 04:00:36;;;;;;;6.90;2.53;;;9.60;99.90;;;;;;5001474;28;20757;-72
2024/01/03 04:03:07;;;;;;;6.43;2.87;;;9.60;1.00;;;;;;5002364;28;20887;-73
2024/01/03 04:05:37;;;;;;;9.43;2.50;;;9.60;1.00;;;;;;5002889;28;20524;-74
2024/01/03 04:08:05;;;;;;;7.20;2.80;;;9.50;99.90;;;;;;4998685;28;20916;-69
2024/01/03 04:10:32;;;;;;;12.77;3.17;;;9.40;99.90;;;;;;4997395;28;20600;-65
2024/01/03 04:13:00;;;;;;;6.60;2.80;;;9.30;99.90;;;;;;4997982;28;20468;-66
2024/01/03 04:15:27;;;;;;;12.50;2.87;;;9.20;99.90;;;;;;4997696;28;20564;-69
2024/01/03 04:17:56;;;;;;;12.20;3.63;;;9.20;99.90;;;;;;4998625;28;20461;-65
2024/01/03 04:20:23;;;;;;;10.20;3.50;;;9.20;99.90;;;;;;4997920;28;20903;-63
2024/01/03 04:22:52;;;;;;;8.40;3.10;;;9.10;99.90;;;;;;4997381;28;20752;-67
2024/01/03 04:25:19;;;;;;;16.20;2.97;;;9.10;1.00;;;;;;4997547;28;20497;-67
2024/01/03 04:27:46;;;;;;;12.60;3.70;;;9.10;1.00;;;;;;4997782;28;20460;-66
2024/01/03 04:30:14;;;;;;;7.97;3.10;;;9.20;1.00;;;;;;4998025;28;20532;-69
2024/01/03 04:32:41;;;;;;;10.90;2.97;;;9.10;1.00;;;;;;4998272;28;20535;-65
2024/01/03 04:35:09;;;;;;;16.77;3.90;;;9.20;1.00;;;;;;4998031;28;20795;-67
2024/01/03 04:37:36;;;;;;;8.73;3.00;;;9.20;99.90;;;;;;4998224;28;20461;-64
2024/01/03 04:40:05;;;;;;;7.93;2.30;;;9.20;99.90;;;;;;4998683;28;20905;-69
2024/01/03 04:42:33;;;;;;;11.70;3.30;;;9.30;99.90;;;;;;4998420;28;20746;-67
2024/01/03 04:45:00;;;;;;;9.47;3.30;;;9.30;99.90;;;;;;4998942;28;20543;-68
2024/01/03 04:47:27;;;;;;;9.30;3.20;;;9.30;99.90;;;;;;4998723;28;20460;-67
2024/01/03 04:49:54;;;;;;;10.40;3.40;;;9.30;99.90;;;;;;4999230;28;20493;-67
2024/01/03 04:52:21;;;;;;;9.50;2.87;;;9.30;99.90;;;;;;5001406;28;20471;-69
2024/01/03 04:54:48;;;;;;;11.70;3.63;;;9.30;1.00;;;;;;5003037;28;20446;-72
2024/01/03 04:57:17;;;;;;;19.23;3.60;;;9.40;1.00;;;;;;5003810;28;20556;-66
2024/01/03 04:59:44;;;;;;;7.93;2.63;;;9.40;1.00;;;;;;5005748;28;20750;-68
2024/01/03 05:02:11;;;;;;;7.77;3.20;;;9.40;45.90;;;;;;5005808;28;20532;-68
2024/01/03 05:04:39;;;;;;;6.90;2.67;;;9.40;1.00;;;;;;5004100;28;20456;-71
2024/01/03 05:07:06;;;;;;;9.53;3.00;;;9.40;1.00;;;;;;5005901;28;20464;-73
2024/01/03 05:16:19;;;;;;;4.67;2.37;;;9.40;1.00;;;;;;5004937;28;20408;-69
2024/01/03 05:18:46;;;;;;;9.83;4.20;;;9.40;1.00;;;;;;5005084;28;20460;-68
2024/01/03 05:21:14;;;;;;;9.53;2.73;;;9.40;99.90;;;;;;5003727;28;20480;-69
2024/01/03 05:23:41;;;;;;;6.70;2.80;;;9.40;99.90;;;;;;5003542;28;20496;-73
2024/01/03 05:26:08;;;;;;;9.40;3.47;;;9.40;99.90;;;;;;5004847;28;20445;-75
2024/01/03 05:28:36;;;;;;;9.57;3.23;;;9.40;99.90;;;;;;5004011;28;20502;-71
2024/01/03 05:31:03;;;;;;;9.47;3.43;;;9.40;99.90;;;;;;5001127;28;20772;-70
2024/01/03 05:33:32;;;;;;;9.80;3.10;;;9.40;99.90;;;;;;5000834;28;20511;-70
2024/01/03 05:35:59;;;;;;;7.93;2.70;;;9.40;1.00;;;;;;5002739;28;20473;-71
2024/01/03 05:38:26;;;;;;;7.00;2.73;;;9.40;1.00;;;;;;5002968;28;20499;-68
2024/01/03 05:40:53;;;;;;;11.03;2.90;;;9.40;74.00;;;;;;5002707;28;20461;-70
2024/01/03 05:43:21;;;;;;;7.13;2.80;;;9.30;99.90;;;;;;5003095;28;20761;-74
2024/01/03 05:45:48;;;;;;;8.57;2.60;;;9.20;99.90;;;;;;5005372;28;20491;-72
2024/01/03 05:48:15;;;;;;;6.77;2.27;;;9.20;1.00;;;;;;5005763;28;20460;-67
2024/01/03 05:50:44;;;;;;;7.50;2.90;;;9.20;84.80;;;;;;5007703;28;20504;-68
2024/01/03 05:53:12;;;;;;;5.93;2.97;;;9.20;99.90;;;;;;5007248;28;20460;-66
2024/01/03 05:55:39;;;;;;;8.27;2.90;;;9.20;99.90;;;;;;5006707;28;20535;-74
2024/01/03 05:58:06;;;;;;;7.90;2.53;;;9.10;99.90;;;;;;5005954;28;20817;-67
2024/01/03 06:00:33;;;;;;;8.77;3.20;;;9.10;99.90;;;;;;5008208;28;20461;-69
2024/01/03 06:03:01;;;;;;;8.97;2.83;;;9.10;99.90;;;;;;5006761;28;20469;-67
2024/01/03 06:05:28;;;;;;;9.33;3.10;;;9.10;1.00;;;;;;5004626;28;20758;-68
2024/01/03 06:07:57;;;;;;;6.03;2.83;;;9.10;1.00;;;;;;5001737;28;20469;-66
2024/01/03 06:10:24;;;;;;;9.03;2.90;;;9.10;1.00;;;;;;5000953;28;20493;-65
2024/01/03 06:12:51;;;;;;;6.90;3.60;;;9.00;1.00;;;;;;4999814;28;20460;-67
2024/01/03 06:15:19;;;;;;;12.43;3.87;;;9.00;93.90;;;;;;5000658;28;20515;-65
2024/01/03 06:17:46;;;;;;;10.33;4.37;;;9.00;99.90;;;;;;5001350;28;20461;-66
2024/01/03 06:20:13;;;;;;;11.53;3.60;;;9.00;99.90;;;;;;5000400;28;20457;-65
2024/01/03 06:22:41;;;;;;;15.60;3.70;;;9.00;1.00;;;;;;5001409;28;20653;-67
2024/01/03 06:25:09;;;;;;;7.50;2.60;;;9.00;1.00;;;;;;5001418;28;20523;-64
2024/01/03 06:27:37;;;;;;;10.43;3.40;;;9.00;21.90;;;;;;5000223;28;20524;-66
2024/01/03 06:30:05;;;;;;;12.50;3.40;;;8.90;99.90;;;;;;5000399;28;20492;-66
2024/01/03 06:32:32;;;;;;;14.63;4.07;;;8.90;1.00;;;;;;4999656;28;20475;-66
2024/01/03 06:34:59;;;;;;;10.73;4.03;;;8.90;1.00;;;;;;4999583;28;20495;-68
2024/01/03 06:37:27;;;;;;;11.00;3.67;;;8.90;99.90;;;;;;4999921;28;20461;-67
2024/01/03 06:39:54;;;;;;;8.97;4.53;;;8.80;99.90;;;;;;4999763;28;20515;-70
2024/01/03 06:42:23;;;;;;;10.43;3.20;;;8.90;99.90;;;;;;5000045;28;20798;-69
2024/01/03 06:44:50;;;;;;;7.80;3.30;;;8.80;99.90;;;;;;4999949;28;20460;-70
2024/01/03 06:47:17;;;;;;;7.07;3.40;;;8.70;99.90;;;;;;5002606;28;20465;-72
2024/01/03 06:49:44;;;;;;;9.20;3.60;;;8.70;99.90;;;;;;5004780;28;20465;-67
2024/01/03 06:52:12;;;;;;;10.27;5.63;;;8.70;99.90;;;;;;5004130;28;20469;-67
2024/01/03 06:54:39;;;;;;;11.17;3.63;;;8.70;99.90;;;;;;5004538;28;20506;-67
2024/01/03 06:57:07;;;;;;;12.50;3.23;;;8.70;99.90;;;;;;5004426;28;20465;-68
2024/01/03 06:59:37;;;;;;;9.00;2.70;;;8.60;99.90;;;;;;5003111;28;20468;-67
2024/01/03 07:02:05;;;;;;;10.73;3.90;;;8.60;99.90;;;;;;5004923;28;20461;-66
2024/01/03 07:04:32;;;;;;;9.63;3.50;;;8.60;99.90;;;;;;5001040;28;20483;-65
2024/01/03 07:06:59;;;;;;;9.77;3.00;;;8.60;99.90;;;;;;4999004;28;20465;-67
2024/01/03 07:09:27;;;;;;;7.40;3.17;;;8.60;99.90;;;;;;4999023;28;20508;-64
2024/01/03 07:11:55;;;;;;;10.20;3.80;;;8.60;99.90;;;;;;4999089;28;20536;-67
2024/01/03 07:14:22;;;;;;;9.40;3.77;;;8.60;99.90;;;;;;4999021;28;20464;-66
2024/01/03 07:16:51;;;;;;;9.03;5.50;;;8.60;99.90;;;;;;4998220;28;20469;-66
2024/01/03 07:19:18;;;;;;;13.00;5.17;;;8.60;99.90;;;;;;4999002;28;20461;-65
2024/01/03 07:21:46;;;;;;;17.57;5.37;;;8.60;99.90;;;;;;4996627;28;20463;-65
2024/01/03 07:24:14;;;;;;;12.90;3.80;;;8.70;99.90;;;;;;4997968;28;20463;-65
2024/01/03 07:26:41;;;;;;;20.07;5.60;;;8.70;99.90;;;;;;4998611;28;20464;-66
2024/01/03 07:29:08;;;;;;;12.80;4.80;;;8.70;99.90;;;;;;4998657;28;20464;-65
2024/01/03 07:31:36;;;;;;;13.40;4.33;;;8.70;99.90;;;;;;4998643;28;20501;-68
2024/01/03 07:34:06;;;;;;;14.23;4.37;;;8.80;99.90;;;;;;4998864;28;20460;-66
2024/01/03 07:36:34;;;;;;;18.07;3.87;;;8.80;99.90;;;;;;4998404;28;20568;-66
2024/01/03 07:39:03;;;;;;;15.70;4.00;;;8.90;99.90;;;;;;4998859;28;20468;-66
2024/01/03 07:41:31;;;;;;;14.90;3.97;;;8.80;99.90;;;;;;4998667;28;20883;-65
2024/01/03 07:43:59;;;;;;;15.60;4.53;;;8.90;99.90;;;;;;4998586;28;20533;-64
2024/01/03 07:46:26;;;;;;;13.07;4.63;;;8.90;99.90;;;;;;4999229;28;20944;-65
2024/01/03 07:48:53;;;;;;;14.23;4.00;;;9.00;99.90;;;;;;4998281;28;20464;-70
2024/01/03 07:51:22;;;;;;;15.03;4.80;;;8.90;99.90;;;;;;4998789;28;20528;-67
2024/01/03 07:53:50;;;;;;;18.93;5.37;;;9.00;99.90;;;;;;4998961;28;20878;-65
2024/01/03 07:56:17;;;;;;;10.50;3.93;;;9.00;99.90;;;;;;4998760;28;20477;-69
2024/01/03 07:58:44;;;;;;;11.80;4.20;;;9.00;99.90;;;;;;4998499;28;20547;-65
2024/01/03 08:01:12;;;;;;;14.57;4.20;;;9.10;1.00;;;;;;4997934;28;20464;-65
2024/01/03 08:03:40;;;;;;;12.20;4.10;;;9.10;1.00;;;;;;4998070;28;20462;-65
2024/01/03 08:06:08;;;;;;;12.93;4.07;;;9.10;1.00;;;;;;4998066;28;20821;-64
2024/01/03 08:08:37;;;;;;;22.33;3.80;;;9.00;1.00;;;;;;4997914;28;20471;-69
2024/01/03 08:11:04;;;;;;;10.33;3.03;;;9.00;99.90;;;;;;4998007;28;20524;-66
2024/01/03 08:13:32;;;;;;;5.90;2.63;;;9.00;99.90;;;;;;5000551;28;20543;-67
2024/01/03 08:15:59;;;;;;;8.90;3.23;;;9.00;99.90;;;;;;5001393;28;20537;-69
2024/01/03 08:18:27;;;;;;;9.73;2.80;;;8.90;99.90;;;;;;4999524;28;20501;-67
2024/01/03 08:20:54;;;;;;;6.03;2.67;;;8.90;99.90;;;;;;4995243;28;20457;-66
2024/01/03 08:23:21;;;;;;;7.53;2.30;;;9.00;99.90;;;;;;4994876;28;20479;-65
2024/01/03 08:25:50;;;;;;;8.63;2.67;;;9.00;1.00;;;;;;4996521;28;20519;-66
2024/01/03 08:28:18;;;;;;;11.93;2.97;;;9.00;1.00;;;;;;4996597;28;20465;-67
2024/01/03 08:30:46;;;;;;;11.17;2.90;;;8.90;1.00;;;;;;4996738;28;20833;-71
2024/01/03 08:33:13;;;;;;;8.67;2.90;;;8.90;1.00;;;;;;4996636;28;20472;-66
2024/01/03 08:35:41;;;;;;;9.73;2.97;;;8.90;1.00;;;;;;4997974;28;20465;-69
2024/01/03 08:38:09;;;;;;;11.80;3.23;;;8.90;1.00;;;;;;4998278;28;20465;-66
2024/01/03 08:40:36;;;;;;;8.30;3.30;;;8.90;1.00;;;;;;4997683;28;20559;-65
2024/01/03 08:43:05;;;;;;;8.33;2.73;;;8.80;1.00;;;;;;4997669;28;20461;-66
2024/01/03 08:45:33;;;;;;;8.50;2.97;;;8.80;1.00;;;;;;5007617;28;20557;-67
2024/01/03 08:48:03;;;;;;;7.33;2.40;;;8.80;59.10;;;;;;5017419;28;20467;-67
2024/01/03 08:50:30;;;;;;;8.67;3.63;;;8.80;99.90;;;;;;5017906;28;20878;-69
2024/01/03 08:52:57;;;;;;;12.80;3.40;;;8.80;99.90;;;;;;5016563;28;20563;-65
2024/01/03 08:55:25;;;;;;;7.53;2.60;;;8.80;90.80;;;;;;5016904;28;20460;-66
2024/01/03 08:57:56;;;;;;;9.23;2.80;;;8.80;82.40;;;;;;5017233;28;20455;-65
2024/01/03 09:00:25;;;;;;;10.97;2.90;;;8.80;2.40;;;;;;5014389;28;20971;-66
2024/01/03 09:02:57;;;;;;;10.33;4.20;;;8.80;1.00;;;;;;4997876;28;20464;-63
2024/01/03 09:05:24;;;;;;;8.10;3.13;;;8.90;1.00;;;;;;4997600;28;20472;-65
2024/01/03 09:07:52;;;;;;;6.83;2.83;;;8.90;1.00;;;;;;4998168;28;20471;-69
2024/01/03 09:10:20;;;;;;;10.67;3.47;;;8.90;1.00;;;;;;4997687;28;20902;-67
2024/01/03 09:12:47;;;;;;;10.23;3.30;;;8.90;1.00;;;;;;4997664;28;20845;-67
2024/01/03 09:15:15;;;;;;;9.90;3.10;;;8.90;1.00;;;;;;4998190;28;20457;-66
2024/01/03 09:17:45;;;;;;;7.50;3.30;;;9.00;1.00;;;;;;4997841;28;20460;-70
2024/01/03 09:20:13;;;;;;;10.57;3.13;;;9.00;99.90;;;;;;4997978;28;20460;-65
2024/01/03 09:22:40;;;;;;;10.67;3.03;;;8.90;99.90;;;;;;4997125;28;20503;-66
2024/01/03 09:25:09;;;;;;;14.37;3.40;;;8.90;99.90;;;;;;4997106;28;20507;-65
2024/01/03 09:27:37;;;;;;;9.07;3.07;;;8.90;99.90;;;;;;4997604;28;20890;-64
2024/01/03 09:30:06;;;;;;;8.50;3.30;;;9.00;99.90;;;;;;4997646;28;20472;-71
2024/01/03 09:32:33;;;;;;;8.33;3.47;;;8.90;99.90;;;;;;4997027;28;20496;-67
2024/01/03 09:35:03;;;;;;;9.33;3.30;;;8.90;99.90;;;;;;4997300;28;20488;-66
2024/01/03 09:37:31;;;;;;;9.23;3.10;;;9.00;99.90;;;;;;5008443;28;20550;-64
2024/01/03 09:39:59;;;;;;;7.37;3.10;;;9.00;99.90;;;;;;5009444;28;20456;-64
2024/01/03 09:42:27;;;;;;;7.90;3.27;;;9.00;99.90;;;;;;5009092;28;20452;-66
2024/01/03 09:44:55;;;;;;;8.10;2.50;;;9.00;99.90;;;;;;5011616;28;20547;-65
2024/01/03 09:47:22;;;;;;;9.80;3.50;;;9.10;99.90;;;;;;5019088;28;20772;-67
2024/01/03 09:49:50;;;;;;;10.47;3.00;;;9.10;74.10;;;;;;5019840;28;20976;-66
2024/01/03 09:52:19;;;;;;;13.40;4.30;;;9.00;80.00;;;;;;5020692;28;20951;-65
2024/01/03 09:54:47;;;;;;;8.10;3.10;;;9.00;93.80;;;;;;5019560;28;20459;-70
2024/01/03 09:57:18;;;;;;;5.77;2.73;;;9.00;62.50;;;;;;5020237;28;20471;-65
2024/01/03 09:59:45;;;;;;;8.73;2.87;;;9.10;77.30;;;;;;5020404;28;20467;-65
2024/01/03 10:02:14;;;;;;;10.07;2.93;;;9.10;39.70;;;;;;5020376;28;20890;-66
2024/01/03 10:04:45;;;;;;;8.50;3.30;;;9.20;34.60;;;;;;5020423;28;20467;-63
2024/01/03 10:07:13;;;;;;;8.90;3.20;;;9.20;43.30;;;;;;5020626;28;20749;-66
2024/01/03 10:09:44;;;;;;;9.00;2.50;;;9.30;26.10;;;;;;5020776;28;20805;-69
2024/01/03 10:12:18;;;;;;;6.90;2.60;;;9.40;7.40;;;;;;5020877;28;20957;-67
2024/01/03 10:14:46;;;;;;;10.20;3.10;;;9.40;1.00;;;;;;5020820;28;20906;-69
2024/01/03 10:17:14;;;;;;;10.23;3.27;;;9.40;1.00;;;;;;5020531;28;20459;-68
2024/01/03 10:19:41;;;;;;;14.83;4.60;;;9.40;1.00;;;;;;5011320;28;20883;-67
2024/01/03 10:22:10;;;;;;;18.23;3.97;;;9.40;1.00;;;;;;5003530;28;20465;-68
2024/01/03 10:24:44;;;;;;;9.30;2.70;;;9.40;1.00;;;;;;5006094;28;20507;-67
2024/01/03 10:27:12;;;;;;;8.20;3.27;;;9.40;1.00;;;;;;5001776;28;20520;-73
2024/01/03 10:29:40;;;;;;;8.50;2.87;;;9.40;1.00;;;;;;5001068;28;20465;-67
2024/01/03 10:32:10;;;;;;;11.80;3.43;;;9.40;1.00;;;;;;5001019;28;20515;-67
2024/01/03 10:34:38;;;;;;;10.97;2.73;;;9.40;1.00;;;;;;5001107;28;20480;-70
2024/01/03 10:37:06;;;;;;;13.60;3.80;;;9.50;1.00;;;;;;5000903;28;20875;-70
2024/01/03 10:39:36;;;;;;;15.30;3.90;;;9.50;1.00;;;;;;5006226;28;20483;-64
2024/01/03 10:42:08;;;;;;;8.07;2.80;;;9.60;1.00;;;;;;5010572;28;20764;-64
2024/01/03 10:44:37;;;;;;;8.30;2.73;;;9.60;1.00;;;;;;5008139;28;20488;-69
2024/01/03 10:47:04;;;;;;;10.43;3.10;;;9.70;1.00;;;;;;4999667;28;20564;-69
2024/01/03 10:49:32;;;;;;;7.93;2.80;;;9.60;1.00;;;;;;4999294;28;20469;-68
2024/01/03 10:52:03;;;;;;;13.03;3.90;;;9.60;1.00;;;;;;4999603;28;20504;-68
2024/01/03 10:54:40;;;;;;;9.73;2.60;;;9.60;1.00;;;;;;4999208;28;20457;-72
2024/01/03 10:57:11;;;;;;;9.60;3.30;;;9.50;1.00;;;;;;4999562;28;20488;-68
2024/01/03 10:59:51;;;;;;;8.80;3.17;;;9.50;1.00;;;;;;4999585;28;20504;-66
2024/01/03 11:02:26;;;;;;;8.67;3.17;;;9.50;1.00;;;;;;4999421;28;20519;-69
2024/01/03 11:05:01;;;;;;;36.00;4.40;;;9.50;1.00;;;;;;4999508;28;20515;-68
2024/01/03 11:07:34;;;;;;;11.83;3.37;;;9.40;1.00;;;;;;4999196;28;20492;-68
2024/01/03 11:10:02;;;;;;;10.17;3.53;;;9.40;45.00;;;;;;4999674;28;20535;-69
2024/01/03 11:12:31;;;;;;;11.43;3.70;;;9.30;24.10;;;;;;4999375;28;20471;-67
2024/01/03 11:15:23;;;;;;;10.43;3.57;;;9.40;57.90;;;;;;4999161;28;20892;-67
2024/01/03 11:17:53;;;;;;;12.53;3.63;;;9.40;67.00;;;;;;4998936;28;20461;-66
2024/01/03 11:20:29;;;;;;;14.80;4.00;;;9.40;51.00;;;;;;4999372;28;20465;-69
2024/01/03 11:23:01;;;;;;;12.33;3.80;;;9.30;58.70;;;;;;4998584;28;20507;-73
2024/01/03 11:25:51;;;;;;;10.30;4.17;;;9.40;58.40;;;;;;4999178;28;20493;-68
2024/01/03 11:28:36;;;;;;;13.00;3.47;;;9.40;68.90;;;;;;4998801;28;20471;-69
2024/01/03 11:31:06;;;;;;;9.83;3.73;;;9.40;86.80;;;;;;4998783;28;20465;-68
2024/01/03 11:33:40;;;;;;;11.40;3.33;;;9.50;79.70;;;;;;4999190;28;20579;-68
2024/01/03 11:36:08;;;;;;;12.23;3.53;;;9.60;58.80;;;;;;4998775;28;20459;-66
2024/01/03 11:38:49;;;;;;;14.17;4.13;;;9.70;29.80;;;;;;4998675;28;20453;-68
2024/01/03 11:41:18;;;;;;;9.03;3.53;;;9.80;1.00;;;;;;4999716;28;20713;-69
2024/01/03 11:43:48;;;;;;;10.10;3.13;;;9.80;1.00;;;;;;4998567;28;20559;-66
2024/01/03 11:46:16;;;;;;;12.17;3.53;;;9.90;1.00;;;;;;5011343;28;20476;-67
2024/01/03 11:48:46;;;;;;;7.97;3.60;;;10.00;1.00;;;;;;5018000;28;20470;-67
2024/01/03 11:51:24;;;;;;;17.83;4.33;;;10.00;1.00;;;;;;5018132;28;20471;-65
2024/01/03 11:53:53;;;;;;;7.63;2.73;;;9.90;1.00;;;;;;5018434;28;20470;-71
2024/01/03 11:56:28;;;;;;;12.53;3.97;;;9.80;1.00;;;;;;5018244;28;20464;-65
2024/01/03 11:58:58;;;;;;;11.73;3.70;;;9.90;1.00;;;;;;5016867;28;20468;-67
2024/01/03 12:01:26;;;;;;;11.60;2.90;;;9.90;1.00;;;;;;5015551;28;20894;-71
2024/01/03 12:04:09;;;;;;;9.60;3.20;;;9.90;1.00;;;;;;5017603;28;20893;-66
2024/01/03 12:06:37;;;;;;;8.47;3.47;;;10.00;1.00;;;;;;5016688;28;20468;-67
2024/01/03 12:09:06;;;;;;;9.63;2.90;;;10.00;1.00;;;;;;5017127;28;20464;-68
2024/01/03 12:11:36;;;;;;;17.13;4.40;;;10.00;1.00;;;;;;5016544;28;20957;-67
2024/01/03 12:14:05;;;;;;;7.70;3.30;;;10.00;1.00;;;;;;5015822;28;20464;-69
2024/01/03 12:16:33;;;;;;;9.03;2.90;;;10.00;1.00;;;;;;5014898;28;20464;-67
2024/01/03 12:19:06;;;;;;;12.20;3.87;;;10.00;1.00;;;;;;5015099;28;20559;-64
2024/01/03 12:21:33;;;;;;;14.00;3.60;;;10.00;1.00;;;;;;5015067;28;20757;-64
2024/01/03 12:24:02;;;;;;;10.33;3.10;;;10.00;1.00;;;;;;5014385;28;20492;-65
2024/01/03 12:26:30;;;;;;;16.23;4.07;;;10.00;1.00;;;;;;5016347;28;20466;-69
2024/01/03 12:29:01;;;;;;;14.53;3.50;;;10.00;1.00;;;;;;5016255;28;20518;-68
2024/01/03 12:31:30;;;;;;;8.97;3.60;;;9.80;1.00;;;;;;5016371;28;20482;-70
2024/01/03 12:34:05;;;;;;;14.47;3.40;;;9.70;1.00;;;;;;5015741;28;20492;-67
2024/01/03 12:36:32;;;;;;;8.17;2.60;;;9.60;1.00;;;;;;5017071;28;20889;-68
2024/01/03 12:39:00;;;;;;;9.30;3.40;;;9.50;1.00;;;;;;5016421;28;20564;-70
2024/01/03 12:41:27;;;;;;;5.87;2.53;;;9.50;1.00;;;;;;5017759;28;20550;-71
2024/01/03 12:43:55;;;;;;;8.23;3.50;;;9.50;1.00;;;;;;5017610;28;20748;-72
2024/01/03 12:46:22;;;;;;;10.60;3.13;;;9.50;1.00;;;;;;5016919;28;20461;-72
2024/01/03 12:48:51;;;;;;;9.20;3.27;;;9.60;1.00;;;;;;5017299;28;20570;-73
2024/01/03 12:51:19;;;;;;;12.23;3.60;;;9.60;1.00;;;;;;5017511;28;20460;-73
2024/01/03 12:53:46;;;;;;;10.03;3.47;;;9.60;1.00;;;;;;5015717;28;20488;-71
2024/01/03 12:56:15;;;;;;;14.23;3.93;;;9.60;4.80;;;;;;5015561;28;20468;-67
2024/01/03 12:58:42;;;;;;;15.87;4.10;;;9.70;9.90;;;;;;5015258;28;20476;-68
2024/01/03 13:01:10;;;;;;;21.23;4.60;;;9.60;8.30;;;;;;5015788;28;20464;-67
2024/01/03 13:03:37;;;;;;;10.50;3.30;;;9.60;6.90;;;;;;5015368;28;20464;-65
2024/01/03 13:06:07;;;;;;;11.77;3.50;;;9.60;26.50;;;;;;5016658;28;20909;-65
2024/01/03 13:08:38;;;;;;;10.80;4.43;;;9.60;61.50;;;;;;5016411;28;20767;-69